sensor_id;sensor_type;location;lat;lon;timestamp;pressure;altitude;pressure_sealevel;temperature;humidity
35224;BME280;21367;51.930;8.112;2022-11-15T00:01:41;100416.44;;;8.14;99.27
35224;BME280;21367;51.930;8.112;2022-11-15T00:07:04;100427.34;;;8.10;99.65
35224;BME280;21367;51.930;8.112;2022-11-15T00:12:29;100418.19;;;7.97;100.00
35224;BME280;21367;51.930;8.112;2022-11-15T00:17:52;100414.09;;;8.01;100.00
35224;BME280;21367;51.930;8.112;2022-11-15T00:23:15;100404.25;;;8.08;100.00
35224;BME280;21367;51.930;8.112;2022-11-15T00:28:41;100406.19;;;8.14;100.00
35224;BME280;21367;51.930;8.112;2022-11-15T00:34:03;100397.63;;;8.14;100.00
35224;BME280;21367;51.930;8.112;2022-11-15T00:39:26;100391.63;;;8.31;100.00
35224;BME280;21367;51.930;8.112;2022-11-15T00:44:52;100393.44;;;8.51;100.00
35224;BME280;21367;51.930;8.112;2022-11-15T00:50:15;100393.00;;;8.42;100.00
35224;BME280;21367;51.930;8.112;2022-11-15T00:55:38;100381.53;;;8.34;100.00
35224;BME280;21367;51.930;8.112;2022-11-15T01:01:12;100381.44;;;8.50;100.00
35224;BME280;21367;51.930;8.112;2022-11-15T01:06:35;100373.47;;;8.44;100.00
35224;BME280;21367;51.930;8.112;2022-11-15T01:11:58;100363.97;;;8.61;100.00
35224;BME280;21367;51.930;8.112;2022-11-15T01:17:26;100355.13;;;8.74;100.00
35224;BME280;21367;51.930;8.112;2022-11-15T01:22:49;100353.25;;;8.70;100.00
35224;BME280;21367;51.930;8.112;2022-11-15T01:28:12;100350.56;;;8.67;100.00
35224;BME280;21367;51.930;8.112;2022-11-15T01:33:38;100349.69;;;8.86;100.00
35224;BME280;21367;51.930;8.112;2022-11-15T01:39:00;100345.41;;;8.86;100.00
35224;BME280;21367;51.930;8.112;2022-11-15T01:44:45;100336.94;;;8.87;100.00
35224;BME280;21367;51.930;8.112;2022-11-15T01:50:14;100340.69;;;8.95;100.00
35224;BME280;21367;51.930;8.112;2022-11-15T01:55:38;100337.13;;;8.92;100.00
35224;BME280;21367;51.930;8.112;2022-11-15T02:01:01;100337.88;;;8.89;100.00
35224;BME280;21367;51.930;8.112;2022-11-15T02:06:27;100335.78;;;9.00;100.00
35224;BME280;21367;51.930;8.112;2022-11-15T02:11:50;100334.66;;;8.93;100.00
35224;BME280;21367;51.930;8.112;2022-11-15T02:17:29;100330.31;;;8.92;100.00
35224;BME280;21367;51.930;8.112;2022-11-15T02:23:13;100326.41;;;9.00;100.00
35224;BME280;21367;51.930;8.112;2022-11-15T02:28:55;100316.13;;;9.00;100.00
35224;BME280;21367;51.930;8.112;2022-11-15T02:34:43;100317.75;;;8.98;100.00
35224;BME280;21367;51.930;8.112;2022-11-15T02:40:15;100309.16;;;8.96;100.00
35224;BME280;21367;51.930;8.112;2022-11-15T02:45:50;100299.38;;;8.88;100.00
35224;BME280;21367;51.930;8.112;2022-11-15T02:51:16;100298.72;;;9.13;100.00
35224;BME280;21367;51.930;8.112;2022-11-15T02:56:40;100294.75;;;9.21;100.00
35224;BME280;21367;51.930;8.112;2022-11-15T03:02:14;100297.19;;;9.18;100.00
35224;BME280;21367;51.930;8.112;2022-11-15T03:07:45;100302.13;;;9.13;100.00
35224;BME280;21367;51.930;8.112;2022-11-15T03:13:19;100308.41;;;9.20;100.00
35224;BME280;21367;51.930;8.112;2022-11-15T03:18:45;100300.66;;;9.18;100.00
35224;BME280;21367;51.930;8.112;2022-11-15T03:24:14;100296.25;;;9.37;100.00
35224;BME280;21367;51.930;8.112;2022-11-15T03:29:41;100293.91;;;9.43;100.00
35224;BME280;21367;51.930;8.112;2022-11-15T03:35:09;100302.53;;;9.66;100.00
35224;BME280;21367;51.930;8.112;2022-11-15T03:40:39;100288.66;;;9.83;100.00
35224;BME280;21367;51.930;8.112;2022-11-15T03:46:07;100302.03;;;9.97;100.00
35224;BME280;21367;51.930;8.112;2022-11-15T03:51:33;100299.97;;;10.11;100.00
35224;BME280;21367;51.930;8.112;2022-11-15T03:56:59;100294.38;;;9.99;100.00
35224;BME280;21367;51.930;8.112;2022-11-15T04:02:22;100295.28;;;10.23;100.00
35224;BME280;21367;51.930;8.112;2022-11-15T04:07:45;100294.06;;;10.36;100.00
35224;BME280;21367;51.930;8.112;2022-11-15T04:13:10;100288.28;;;10.41;100.00
35224;BME280;21367;51.930;8.112;2022-11-15T04:18:33;100290.75;;;10.38;100.00
35224;BME280;21367;51.930;8.112;2022-11-15T04:23:56;100286.63;;;10.21;100.00
35224;BME280;21367;51.930;8.112;2022-11-15T04:29:33;100284.91;;;10.20;100.00
35224;BME280;21367;51.930;8.112;2022-11-15T04:34:59;100284.44;;;10.08;100.00
35224;BME280;21367;51.930;8.112;2022-11-15T04:40:21;100286.44;;;9.92;100.00
35224;BME280;21367;51.930;8.112;2022-11-15T04:45:46;100283.63;;;9.86;100.00
35224;BME280;21367;51.930;8.112;2022-11-15T04:51:09;100286.84;;;9.81;100.00
35224;BME280;21367;51.930;8.112;2022-11-15T04:56:31;100281.31;;;9.70;100.00
35224;BME280;21367;51.930;8.112;2022-11-15T05:01:57;100280.28;;;9.87;100.00
35224;BME280;21367;51.930;8.112;2022-11-15T05:07:19;100290.88;;;9.74;100.00
35224;BME280;21367;51.930;8.112;2022-11-15T05:12:42;100283.47;;;9.59;100.00
35224;BME280;21367;51.930;8.112;2022-11-15T05:18:08;100288.53;;;9.58;100.00
35224;BME280;21367;51.930;8.112;2022-11-15T05:23:31;100278.28;;;9.58;100.00
35224;BME280;21367;51.930;8.112;2022-11-15T05:28:53;100263.34;;;9.70;100.00
35224;BME280;21367;51.930;8.112;2022-11-15T05:34:19;100280.94;;;9.61;100.00
35224;BME280;21367;51.930;8.112;2022-11-15T05:39:44;100269.88;;;9.62;100.00
35224;BME280;21367;51.930;8.112;2022-11-15T05:45:08;100277.31;;;9.56;100.00
35224;BME280;21367;51.930;8.112;2022-11-15T05:50:36;100279.44;;;9.66;100.00
35224;BME280;21367;51.930;8.112;2022-11-15T05:56:00;100270.88;;;9.65;100.00
35224;BME280;21367;51.930;8.112;2022-11-15T06:01:23;100269.34;;;9.70;100.00
35224;BME280;21367;51.930;8.112;2022-11-15T06:06:50;100271.50;;;9.82;100.00
35224;BME280;21367;51.930;8.112;2022-11-15T06:12:13;100267.13;;;9.80;100.00
35224;BME280;21367;51.930;8.112;2022-11-15T06:17:36;100273.50;;;9.89;100.00
35224;BME280;21367;51.930;8.112;2022-11-15T06:23:03;100277.38;;;9.78;100.00
35224;BME280;21367;51.930;8.112;2022-11-15T06:28:28;100279.97;;;9.80;100.00
35224;BME280;21367;51.930;8.112;2022-11-15T06:33:51;100279.97;;;9.80;100.00
35224;BME280;21367;51.930;8.112;2022-11-15T06:39:16;100285.41;;;9.87;100.00
35224;BME280;21367;51.930;8.112;2022-11-15T06:44:39;100288.88;;;9.89;100.00
35224;BME280;21367;51.930;8.112;2022-11-15T06:50:02;100285.69;;;9.95;100.00
35224;BME280;21367;51.930;8.112;2022-11-15T06:55:27;100295.78;;;9.90;100.00
35224;BME280;21367;51.930;8.112;2022-11-15T07:00:50;100300.09;;;9.91;100.00
35224;BME280;21367;51.930;8.112;2022-11-15T07:06:13;100297.69;;;9.96;100.00
35224;BME280;21367;51.930;8.112;2022-11-15T07:11:39;100302.66;;;9.91;100.00
35224;BME280;21367;51.930;8.112;2022-11-15T07:17:03;100307.09;;;9.95;100.00
35224;BME280;21367;51.930;8.112;2022-11-15T07:22:27;100316.47;;;10.17;100.00
35224;BME280;21367;51.930;8.112;2022-11-15T07:27:57;100315.44;;;10.35;100.00
35224;BME280;21367;51.930;8.112;2022-11-15T07:33:19;100321.06;;;10.49;100.00
35224;BME280;21367;51.930;8.112;2022-11-15T07:38:42;100317.91;;;10.56;100.00
35224;BME280;21367;51.930;8.112;2022-11-15T07:44:07;100324.63;;;10.76;100.00
35224;BME280;21367;51.930;8.112;2022-11-15T07:49:30;100327.31;;;10.79;100.00
35224;BME280;21367;51.930;8.112;2022-11-15T07:54:53;100324.94;;;10.85;100.00
35224;BME280;21367;51.930;8.112;2022-11-15T08:00:19;100324.63;;;11.00;100.00
35224;BME280;21367;51.930;8.112;2022-11-15T08:05:42;100324.44;;;11.21;100.00
35224;BME280;21367;51.930;8.112;2022-11-15T08:11:05;100318.00;;;11.34;100.00
35224;BME280;21367;51.930;8.112;2022-11-15T08:16:30;100308.28;;;11.52;100.00
35224;BME280;21367;51.930;8.112;2022-11-15T08:21:53;100301.16;;;11.98;100.00
35224;BME280;21367;51.930;8.112;2022-11-15T08:27:15;100307.06;;;12.24;100.00
35224;BME280;21367;51.930;8.112;2022-11-15T08:32:41;100309.28;;;12.42;100.00
35224;BME280;21367;51.930;8.112;2022-11-15T08:38:04;100305.00;;;12.74;100.00
35224;BME280;21367;51.930;8.112;2022-11-15T08:43:27;100296.56;;;12.80;98.54
35224;BME280;21367;51.930;8.112;2022-11-15T08:48:52;100298.38;;;13.17;95.25
35224;BME280;21367;51.930;8.112;2022-11-15T08:54:15;100295.81;;;13.18;91.47
35224;BME280;21367;51.930;8.112;2022-11-15T08:59:38;100300.00;;;13.13;91.16
35224;BME280;21367;51.930;8.112;2022-11-15T09:05:04;100301.75;;;13.14;90.73
35224;BME280;21367;51.930;8.112;2022-11-15T09:10:27;100303.75;;;13.25;89.62
35224;BME280;21367;51.930;8.112;2022-11-15T09:15:50;100301.38;;;13.32;86.91
35224;BME280;21367;51.930;8.112;2022-11-15T09:21:15;100300.59;;;13.36;88.07
35224;BME280;21367;51.930;8.112;2022-11-15T09:26:38;100297.00;;;13.30;87.51
35224;BME280;21367;51.930;8.112;2022-11-15T09:32:01;100304.28;;;13.46;87.27
35224;BME280;21367;51.930;8.112;2022-11-15T09:37:26;100307.41;;;13.33;87.29
35224;BME280;21367;51.930;8.112;2022-11-15T09:43:02;100306.22;;;13.55;84.79
35224;BME280;21367;51.930;8.112;2022-11-15T09:48:43;100293.66;;;13.70;84.50
35224;BME280;21367;51.930;8.112;2022-11-15T09:54:19;100295.53;;;13.77;83.65
35224;BME280;21367;51.930;8.112;2022-11-15T09:59:40;100287.84;;;13.80;83.45
35224;BME280;21367;51.930;8.112;2022-11-15T10:04:47;100286.19;;;13.84;82.22
35224;BME280;21367;51.930;8.112;2022-11-15T10:09:58;100277.19;;;14.04;79.94
35224;BME280;21367;51.930;8.112;2022-11-15T10:15:10;100278.13;;;14.09;80.24
35224;BME280;21367;51.930;8.112;2022-11-15T10:20:20;100267.16;;;14.21;79.10
35224;BME280;21367;51.930;8.112;2022-11-15T10:25:29;100258.69;;;14.27;77.35
35224;BME280;21367;51.930;8.112;2022-11-15T10:30:36;100257.56;;;14.16;78.75
35224;BME280;21367;51.930;8.112;2022-11-15T10:35:40;100248.59;;;14.41;77.13
35224;BME280;21367;51.930;8.112;2022-11-15T10:40:47;100255.03;;;14.17;76.96
35224;BME280;21367;51.930;8.112;2022-11-15T10:45:51;100237.81;;;14.19;76.61
35224;BME280;21367;51.930;8.112;2022-11-15T10:50:55;100233.25;;;14.48;75.10
35224;BME280;21367;51.930;8.112;2022-11-15T10:56:07;100222.84;;;14.47;75.13
35224;BME280;21367;51.930;8.112;2022-11-15T11:01:15;100223.06;;;14.56;73.60
35224;BME280;21367;51.930;8.112;2022-11-15T11:06:19;100218.72;;;14.55;71.26
35224;BME280;21367;51.930;8.112;2022-11-15T11:11:44;100207.34;;;14.47;72.10
35224;BME280;21367;51.930;8.112;2022-11-15T11:16:51;100207.47;;;14.53;73.11
35224;BME280;21367;51.930;8.112;2022-11-15T11:22:01;100190.00;;;14.91;72.39
35224;BME280;21367;51.930;8.112;2022-11-15T11:27:21;100188.38;;;14.96;71.60
35224;BME280;21367;51.930;8.112;2022-11-15T11:32:38;100180.25;;;14.75;70.86
35224;BME280;21367;51.930;8.112;2022-11-15T11:37:47;100164.00;;;14.82;70.63
35224;BME280;21367;51.930;8.112;2022-11-15T11:43:00;100163.28;;;14.91;69.83
35224;BME280;21367;51.930;8.112;2022-11-15T11:48:12;100159.75;;;14.86;70.23
35224;BME280;21367;51.930;8.112;2022-11-15T11:53:24;100145.53;;;15.14;68.31
35224;BME280;21367;51.930;8.112;2022-11-15T11:58:34;100143.72;;;15.08;68.55
35224;BME280;21367;51.930;8.112;2022-11-15T12:03:43;100153.63;;;15.40;67.86
35224;BME280;21367;51.930;8.112;2022-11-15T12:08:52;100152.00;;;15.48;67.55
35224;BME280;21367;51.930;8.112;2022-11-15T12:14:04;100137.47;;;15.58;66.95
35224;BME280;21367;51.930;8.112;2022-11-15T12:19:11;100130.50;;;15.54;66.78
35224;BME280;21367;51.930;8.112;2022-11-15T12:24:20;100126.06;;;16.15;65.22
35224;BME280;21367;51.930;8.112;2022-11-15T12:29:35;100119.34;;;16.37;64.57
35224;BME280;21367;51.930;8.112;2022-11-15T12:34:45;100115.38;;;15.86;63.91
35224;BME280;21367;51.930;8.112;2022-11-15T12:45:30;100102.47;;;16.86;62.31
35224;BME280;21367;51.930;8.112;2022-11-15T12:50:53;100105.59;;;16.46;62.89
35224;BME280;21367;51.930;8.112;2022-11-15T12:56:17;100091.84;;;16.59;62.80
35224;BME280;21367;51.930;8.112;2022-11-15T13:01:58;100085.91;;;16.71;60.94
35224;BME280;21367;51.930;8.112;2022-11-15T13:07:04;100084.78;;;16.41;61.72
35224;BME280;21367;51.930;8.112;2022-11-15T13:12:09;100071.00;;;16.47;62.77
35224;BME280;21367;51.930;8.112;2022-11-15T13:17:33;100059.94;;;16.68;61.46
35224;BME280;21367;51.930;8.112;2022-11-15T13:22:39;100070.28;;;16.64;60.41
35224;BME280;21367;51.930;8.112;2022-11-15T13:27:57;100064.22;;;16.64;60.44
35224;BME280;21367;51.930;8.112;2022-11-15T13:33:08;100056.75;;;17.11;59.74
35224;BME280;21367;51.930;8.112;2022-11-15T13:38:19;100054.22;;;17.28;58.56
35224;BME280;21367;51.930;8.112;2022-11-15T13:43:34;100050.91;;;17.71;57.59
35224;BME280;21367;51.930;8.112;2022-11-15T13:48:42;100043.16;;;17.91;57.38
35224;BME280;21367;51.930;8.112;2022-11-15T13:53:50;100039.28;;;16.84;57.21
35224;BME280;21367;51.930;8.112;2022-11-15T13:58:55;100028.41;;;16.18;57.78
35224;BME280;21367;51.930;8.112;2022-11-15T14:04:03;100040.31;;;15.92;59.18
35224;BME280;21367;51.930;8.112;2022-11-15T14:09:33;100030.13;;;16.16;59.29
35224;BME280;21367;51.930;8.112;2022-11-15T14:14:45;100023.13;;;16.05;59.16
35224;BME280;21367;51.930;8.112;2022-11-15T14:19:52;100012.66;;;15.92;59.86
35224;BME280;21367;51.930;8.112;2022-11-15T14:25:14;100009.09;;;15.05;63.46
35224;BME280;21367;51.930;8.112;2022-11-15T14:30:19;99993.38;;;14.91;63.75
35224;BME280;21367;51.930;8.112;2022-11-15T14:35:26;99993.88;;;14.64;65.79
35224;BME280;21367;51.930;8.112;2022-11-15T14:40:30;99988.84;;;14.19;67.14
35224;BME280;21367;51.930;8.112;2022-11-15T14:45:34;99982.00;;;14.22;67.66
35224;BME280;21367;51.930;8.112;2022-11-15T14:50:41;99984.13;;;13.93;68.21
35224;BME280;21367;51.930;8.112;2022-11-15T14:55:45;99981.16;;;13.70;67.92
35224;BME280;21367;51.930;8.112;2022-11-15T15:00:49;99982.72;;;13.60;67.63
35224;BME280;21367;51.930;8.112;2022-11-15T15:05:56;99982.38;;;13.42;68.58
35224;BME280;21367;51.930;8.112;2022-11-15T15:11:00;99970.56;;;13.12;69.25
35224;BME280;21367;51.930;8.112;2022-11-15T15:16:05;99969.16;;;12.84;70.77
35224;BME280;21367;51.930;8.112;2022-11-15T15:21:19;99962.97;;;12.76;72.66
35224;BME280;21367;51.930;8.112;2022-11-15T15:26:24;99954.31;;;12.72;72.27
35224;BME280;21367;51.930;8.112;2022-11-15T15:31:30;99950.41;;;12.50;73.59
35224;BME280;21367;51.930;8.112;2022-11-15T15:36:36;99940.63;;;12.37;74.56
35224;BME280;21367;51.930;8.112;2022-11-15T15:41:41;99927.25;;;12.16;75.11
35224;BME280;21367;51.930;8.112;2022-11-15T15:46:45;99913.22;;;12.01;75.30
35224;BME280;21367;51.930;8.112;2022-11-15T15:51:51;99915.16;;;11.77;76.54
35224;BME280;21367;51.930;8.112;2022-11-15T15:56:55;99916.75;;;11.72;77.05
35224;BME280;21367;51.930;8.112;2022-11-15T16:02:01;99896.22;;;11.39;77.92
35224;BME280;21367;51.930;8.112;2022-11-15T16:07:15;99889.66;;;11.51;78.18
35224;BME280;21367;51.930;8.112;2022-11-15T16:12:20;99878.41;;;11.13;79.41
35224;BME280;21367;51.930;8.112;2022-11-15T16:17:28;99877.63;;;11.17;79.14
35224;BME280;21367;51.930;8.112;2022-11-15T16:22:36;99882.13;;;10.93;79.69
35224;BME280;21367;51.930;8.112;2022-11-15T16:27:40;99879.69;;;10.97;80.29
35224;BME280;21367;51.930;8.112;2022-11-15T16:32:45;99876.81;;;10.86;80.33
35224;BME280;21367;51.930;8.112;2022-11-15T16:37:52;99866.78;;;10.64;82.96
35224;BME280;21367;51.930;8.112;2022-11-15T16:42:56;99855.38;;;10.54;85.19
35224;BME280;21367;51.930;8.112;2022-11-15T16:48:03;99853.47;;;10.47;87.34
35224;BME280;21367;51.930;8.112;2022-11-15T16:53:09;99856.06;;;10.49;90.34
35224;BME280;21367;51.930;8.112;2022-11-15T16:58:13;99847.22;;;10.69;90.67
35224;BME280;21367;51.930;8.112;2022-11-15T17:03:17;99843.31;;;10.83;91.25
35224;BME280;21367;51.930;8.112;2022-11-15T17:08:24;99842.38;;;10.80;93.75
35224;BME280;21367;51.930;8.112;2022-11-15T17:13:29;99831.56;;;10.92;93.76
35224;BME280;21367;51.930;8.112;2022-11-15T17:18:33;99829.31;;;11.04;93.20
35224;BME280;21367;51.930;8.112;2022-11-15T17:23:41;99830.16;;;11.04;93.72
35224;BME280;21367;51.930;8.112;2022-11-15T17:28:45;99819.72;;;10.98;94.60
35224;BME280;21367;51.930;8.112;2022-11-15T17:33:49;99806.97;;;11.03;95.20
35224;BME280;21367;51.930;8.112;2022-11-15T17:39:00;99817.31;;;11.04;96.57
35224;BME280;21367;51.930;8.112;2022-11-15T17:44:04;99819.34;;;11.18;96.73
35224;BME280;21367;51.930;8.112;2022-11-15T17:49:08;99815.47;;;11.33;96.16
35224;BME280;21367;51.930;8.112;2022-11-15T17:54:15;99819.88;;;11.38;96.54
35224;BME280;21367;51.930;8.112;2022-11-15T17:59:19;99816.59;;;11.45;96.50
35224;BME280;21367;51.930;8.112;2022-11-15T18:04:23;99813.13;;;11.43;96.97
35224;BME280;21367;51.930;8.112;2022-11-15T18:09:31;99803.75;;;11.46;97.31
35224;BME280;21367;51.930;8.112;2022-11-15T18:14:35;99802.31;;;11.57;96.15
35224;BME280;21367;51.930;8.112;2022-11-15T18:19:39;99807.34;;;11.53;96.98
35224;BME280;21367;51.930;8.112;2022-11-15T18:24:46;99809.84;;;11.50;97.91
35224;BME280;21367;51.930;8.112;2022-11-15T18:29:50;99799.69;;;11.56;97.35
35224;BME280;21367;51.930;8.112;2022-11-15T18:34:54;99794.44;;;11.51;97.78
35224;BME280;21367;51.930;8.112;2022-11-15T18:40:04;99793.75;;;11.57;97.27
35224;BME280;21367;51.930;8.112;2022-11-15T18:45:09;99790.88;;;11.45;98.70
35224;BME280;21367;51.930;8.112;2022-11-15T18:50:14;99784.22;;;11.54;97.64
35224;BME280;21367;51.930;8.112;2022-11-15T18:55:21;99773.94;;;11.54;97.76
35224;BME280;21367;51.930;8.112;2022-11-15T19:00:25;99768.78;;;11.54;98.42
35224;BME280;21367;51.930;8.112;2022-11-15T19:05:30;99763.38;;;11.42;99.71
35224;BME280;21367;51.930;8.112;2022-11-15T19:10:37;99758.28;;;11.45;98.98
35224;BME280;21367;51.930;8.112;2022-11-15T19:15:42;99757.50;;;11.49;98.67
35224;BME280;21367;51.930;8.112;2022-11-15T19:20:46;99758.22;;;11.42;99.44
35224;BME280;21367;51.930;8.112;2022-11-15T19:25:57;99741.22;;;11.49;99.61
35224;BME280;21367;51.930;8.112;2022-11-15T19:31:03;99753.16;;;11.47;99.20
35224;BME280;21367;51.930;8.112;2022-11-15T19:36:11;99737.88;;;11.53;98.99
35224;BME280;21367;51.930;8.112;2022-11-15T19:41:20;99740.22;;;11.44;99.82
35224;BME280;21367;51.930;8.112;2022-11-15T19:46:25;99736.84;;;11.46;99.12
35224;BME280;21367;51.930;8.112;2022-11-15T19:51:29;99735.16;;;11.47;99.68
35224;BME280;21367;51.930;8.112;2022-11-15T19:56:37;99722.53;;;11.57;98.82
35224;BME280;21367;51.930;8.112;2022-11-15T20:01:43;99720.50;;;11.43;99.84
35224;BME280;21367;51.930;8.112;2022-11-15T20:06:47;99707.81;;;11.50;99.59
35224;BME280;21367;51.930;8.112;2022-11-15T20:11:53;99709.50;;;11.50;99.31
35224;BME280;21367;51.930;8.112;2022-11-15T20:16:58;99700.81;;;11.45;100.00
35224;BME280;21367;51.930;8.112;2022-11-15T20:22:02;99689.72;;;11.47;99.75
35224;BME280;21367;51.930;8.112;2022-11-15T20:27:09;99689.59;;;11.41;100.00
35224;BME280;21367;51.930;8.112;2022-11-15T20:32:13;99695.81;;;11.51;100.00
35224;BME280;21367;51.930;8.112;2022-11-15T20:37:17;99689.81;;;11.52;100.00
35224;BME280;21367;51.930;8.112;2022-11-15T20:42:24;99689.72;;;11.47;100.00
35224;BME280;21367;51.930;8.112;2022-11-15T20:47:28;99687.38;;;11.56;100.00
35224;BME280;21367;51.930;8.112;2022-11-15T20:52:33;99691.59;;;11.54;100.00
35224;BME280;21367;51.930;8.112;2022-11-15T20:57:39;99681.50;;;11.64;100.00
35224;BME280;21367;51.930;8.112;2022-11-15T21:02:43;99677.94;;;11.57;100.00
35224;BME280;21367;51.930;8.112;2022-11-15T21:07:48;99670.81;;;11.45;100.00
35224;BME280;21367;51.930;8.112;2022-11-15T21:12:54;99673.44;;;11.48;100.00
35224;BME280;21367;51.930;8.112;2022-11-15T21:17:58;99670.03;;;11.49;100.00
35224;BME280;21367;51.930;8.112;2022-11-15T21:23:02;99662.31;;;11.49;100.00
35224;BME280;21367;51.930;8.112;2022-11-15T21:28:09;99660.53;;;11.47;100.00
35224;BME280;21367;51.930;8.112;2022-11-15T21:33:13;99658.59;;;11.37;100.00
35224;BME280;21367;51.930;8.112;2022-11-15T21:38:17;99655.16;;;11.36;100.00
35224;BME280;21367;51.930;8.112;2022-11-15T21:43:25;99642.34;;;11.38;100.00
35224;BME280;21367;51.930;8.112;2022-11-15T21:48:31;99645.88;;;11.43;100.00
35224;BME280;21367;51.930;8.112;2022-11-15T21:53:35;99643.31;;;11.43;100.00
35224;BME280;21367;51.930;8.112;2022-11-15T21:58:42;99642.50;;;11.45;100.00
35224;BME280;21367;51.930;8.112;2022-11-15T22:03:46;99633.06;;;11.46;100.00
35224;BME280;21367;51.930;8.112;2022-11-15T22:08:50;99632.34;;;11.51;100.00
35224;BME280;21367;51.930;8.112;2022-11-15T22:13:57;99629.50;;;11.39;100.00
35224;BME280;21367;51.930;8.112;2022-11-15T22:19:01;99630.25;;;11.33;100.00
35224;BME280;21367;51.930;8.112;2022-11-15T22:24:06;99626.34;;;11.11;100.00
35224;BME280;21367;51.930;8.112;2022-11-15T22:29:13;99621.19;;;11.11;100.00
35224;BME280;21367;51.930;8.112;2022-11-15T22:34:18;99615.91;;;11.04;100.00
35224;BME280;21367;51.930;8.112;2022-11-15T22:39:22;99605.56;;;11.02;100.00
35224;BME280;21367;51.930;8.112;2022-11-15T22:44:29;99598.63;;;10.98;100.00
35224;BME280;21367;51.930;8.112;2022-11-15T22:49:33;99596.31;;;11.10;100.00
35224;BME280;21367;51.930;8.112;2022-11-15T22:54:38;99588.34;;;10.98;100.00
35224;BME280;21367;51.930;8.112;2022-11-15T22:59:45;99597.09;;;11.06;100.00
35224;BME280;21367;51.930;8.112;2022-11-15T23:04:49;99586.69;;;11.02;100.00
35224;BME280;21367;51.930;8.112;2022-11-15T23:09:54;99588.13;;;10.89;100.00
35224;BME280;21367;51.930;8.112;2022-11-15T23:15:21;99581.75;;;11.11;100.00
35224;BME280;21367;51.930;8.112;2022-11-15T23:20:25;99583.41;;;11.07;100.00
35224;BME280;21367;51.930;8.112;2022-11-15T23:25:29;99584.78;;;10.92;100.00
35224;BME280;21367;51.930;8.112;2022-11-15T23:30:36;99575.56;;;10.63;100.00
35224;BME280;21367;51.930;8.112;2022-11-15T23:35:53;99574.50;;;10.55;100.00
35224;BME280;21367;51.930;8.112;2022-11-15T23:40:58;99567.84;;;10.63;100.00
35224;BME280;21367;51.930;8.112;2022-11-15T23:46:05;99567.72;;;10.59;100.00
35224;BME280;21367;51.930;8.112;2022-11-15T23:51:09;99568.50;;;10.55;100.00
35224;BME280;21367;51.930;8.112;2022-11-15T23:56:16;99562.41;;;10.51;100.00
